Time;durP1;ratioP1;P1;durP2;ratioP2;P2;SDS_P1;SDS_P2;PMS_P1;PMS_P2;Temp;Humidity;BMP_temperature;BMP_pressure;BME280_temperature;BME280_humidity;BME280_pressure;Samples;Min_cycle;Max_cycle;Signal;HPM_P1;HPM_P2
2022/01/05 00:01:00;;;;;;;5.05;0.60;;;;;;;6.71;81.59;98871.13;5089725;28;19918;-69
2022/01/05 00:04:04;;;;;;;3.38;0.75;;;;;;;6.58;80.44;98878.00;5088897;28;20140;-69
2022/01/05 00:07:07;;;;;;;;;;;;;;;6.57;80.79;98871.13;5089259;28;20286;-69
2022/01/05 00:10:10;;;;;;;2.80;0.70;;;;;;;6.58;80.87;98875.41;5088950;28;20376;-69
2022/01/05 00:13:13;;;;;;;2.83;0.40;;;;;;;6.53;81.33;98867.88;5087581;28;20462;-69
2022/01/05 00:16:16;;;;;;;;;;;;;;;6.55;81.88;98862.63;5089651;28;20117;-70
2022/01/05 00:19:20;;;;;;;4.72;0.57;;;;;;;6.65;81.97;98876.69;5078341;28;19919;-69
2022/01/05 00:22:23;;;;;;;;;;;;;;;6.58;81.37;98859.84;5089696;28;20077;-69
2022/01/05 00:25:26;;;;;;;3.75;0.55;;;;;;;6.56;82.65;98855.66;5111508;27;19919;-69
2022/01/05 00:28:30;;;;;;;;;;;;;;;6.48;82.39;98856.16;5088616;28;20584;-69
2022/01/05 00:31:33;;;;;;;2.65;0.70;;;;;;;6.48;81.03;98848.34;5087514;28;20089;-69
2022/01/05 00:34:37;;;;;;;7.97;1.10;;;;;;;6.55;82.66;98843.63;5088752;28;20515;-69
2022/01/05 00:37:40;;;;;;;;;;;;;;;6.67;82.94;98841.06;5089459;28;20579;-69
2022/01/05 00:40:43;;;;;;;5.07;0.77;;;;;;;6.46;82.62;98839.81;5088613;28;19993;-69
2022/01/05 00:43:46;;;;;;;;;;;;;;;6.47;80.71;98833.69;5088668;28;20077;-70
2022/01/05 00:46:50;;;;;;;4.03;0.57;;;;;;;6.56;80.31;98838.31;5087441;28;19968;-70
2022/01/05 00:49:53;;;;;;;;;;;;;;;6.58;82.02;98844.25;5083880;28;20027;-69
2022/01/05 00:53:00;;;;;;;4.13;0.70;;;;;;;6.69;81.59;98865.16;5087565;28;19919;-69
2022/01/05 00:56:03;;;;;;;5.40;0.70;;;;;;;6.55;81.24;98860.03;5085059;28;20568;-69
2022/01/05 00:59:07;;;;;;;2.25;0.50;;;;;;;6.32;80.39;98879.63;5088422;28;20081;-69
2022/01/05 01:02:10;;;;;;;2.10;0.40;;;;;;;5.99;83.12;98887.66;5087589;28;20069;-69
2022/01/05 01:05:14;;;;;;;;;;;;;;;5.72;82.88;98906.50;5087976;28;20555;-69
2022/01/05 01:08:17;;;;;;;1.80;0.65;;;;;;;5.57;84.47;98944.50;5087545;28;19922;-70
2022/01/05 01:11:21;;;;;;;;;;;;;;;5.58;84.14;98969.53;5088371;28;20078;-68
2022/01/05 01:14:24;;;;;;;1.30;0.30;;;;;;;5.32;82.47;98976.16;5088072;28;19934;-69
2022/01/05 01:17:27;;;;;;;0.88;0.20;;;;;;;5.32;80.97;98985.69;5087985;28;20120;-69
2022/01/05 01:20:30;;;;;;;2.85;0.50;;;;;;;5.04;79.18;99014.84;5067225;28;20047;-69
2022/01/05 01:23:34;;;;;;;;;;;;;;;4.90;78.56;99007.81;5067758;28;20059;-69
2022/01/05 01:26:37;;;;;;;0.90;0.20;;;;;;;4.82;78.19;99016.00;5067432;28;19987;-69
2022/01/05 01:29:40;;;;;;;1.83;0.52;;;;;;;4.78;77.93;99017.06;5078481;28;20078;-69
2022/01/05 01:32:43;;;;;;;2.10;0.45;;;;;;;4.67;77.68;99021.97;5087968;28;20047;-68
2022/01/05 01:35:47;;;;;;;;;;;;;;;3.92;79.44;99043.84;5088474;28;20374;-69
2022/01/05 01:38:50;;;;;;;1.85;0.40;;;;;;;3.87;80.40;99066.53;5087200;28;19923;-69
2022/01/05 01:41:54;;;;;;;1.52;0.35;;;;;;;4.13;79.22;99075.63;5087114;28;20043;-70
2022/01/05 01:44:57;;;;;;;1.60;0.32;;;;;;;4.39;79.93;99082.91;5086082;28;20098;-69
2022/01/05 01:48:00;;;;;;;;;;;;;;;4.13;79.52;99094.56;5086780;28;20109;-69
2022/01/05 01:51:03;;;;;;;2.17;0.45;;;;;;;4.26;78.79;99087.03;5087604;28;19960;-69
2022/01/05 01:54:07;;;;;;;;;;;;;;;4.42;78.74;99100.88;5087942;28;20113;-69
2022/01/05 01:57:12;;;;;;;4.45;0.50;;;;;;;4.17;78.32;99121.09;5086195;28;21249;-69
2022/01/05 02:00:15;;;;;;;2.35;0.50;;;;;;;4.47;78.44;99131.72;5086826;28;20074;-69
2022/01/05 02:03:18;;;;;;;3.80;0.60;;;;;;;4.27;79.04;99139.59;5086637;28;20557;-69
2022/01/05 02:06:22;;;;;;;3.53;0.43;;;;;;;3.99;79.70;99137.50;5087315;28;20459;-68
2022/01/05 02:09:27;;;;;;;;;;;;;;;4.03;78.78;99146.81;5092598;28;20562;-69
2022/01/05 02:12:31;;;;;;;1.48;0.40;;;;;;;3.95;78.51;99149.75;5090717;28;19919;-69
2022/01/05 02:15:34;;;;;;;2.70;0.68;;;;;;;4.01;78.50;99161.56;5091184;28;20214;-69
2022/01/05 02:21:44;;;;;;;1.95;0.50;;;;;;;4.67;78.25;99169.56;5090648;28;20035;-69
2022/01/05 02:24:48;;;;;;;1.80;0.40;;;;;;;4.23;77.06;99180.31;5090640;28;20128;-69
2022/01/05 02:27:54;;;;;;;0.88;0.22;;;;;;;3.93;77.89;99186.03;5090475;28;20127;-69
2022/01/05 02:30:58;;;;;;;0.68;0.15;;;;;;;4.05;78.13;99191.53;5091165;28;20309;-69
2022/01/05 02:34:02;;;;;;;1.33;0.20;;;;;;;4.25;76.53;99206.97;5091349;28;20463;-69
2022/01/05 02:37:05;;;;;;;2.03;0.35;;;;;;;4.43;76.69;99219.03;5091125;28;20066;-69
2022/01/05 02:40:12;;;;;;;;;;;;;;;4.49;77.26;99237.75;5090519;28;20046;-69
2022/01/05 02:43:15;;;;;;;1.55;0.40;;;;;;;4.36;76.51;99230.56;5090681;28;19919;-69
2022/01/05 02:46:21;;;;;;;0.73;0.13;;;;;;;4.10;76.56;99234.38;5089472;28;20082;-70
2022/01/05 02:49:24;;;;;;;1.55;0.30;;;;;;;3.79;77.50;99247.03;5069157;28;20514;-69
2022/01/05 02:52:28;;;;;;;;;;;;;;;4.09;78.26;99242.22;5070966;28;20417;-69
2022/01/05 02:55:31;;;;;;;1.92;0.40;;;;;;;4.06;77.13;99237.19;5082524;28;19923;-69
2022/01/05 02:58:34;;;;;;;;;;;;;;;4.20;79.35;99233.03;5090979;28;20645;-69
2022/01/05 03:01:38;;;;;;;3.30;0.52;;;;;;;4.27;76.69;99243.09;5089766;28;19937;-69
2022/01/05 03:04:41;;;;;;;2.42;0.40;;;;;;;3.96;76.06;99242.78;5090145;28;20068;-69
2022/01/05 03:07:44;;;;;;;2.28;0.32;;;;;;;4.05;79.46;99232.91;5090130;28;20043;-69
2022/01/05 03:10:48;;;;;;;2.47;0.40;;;;;;;4.20;79.55;99225.28;5090326;28;20042;-69
2022/01/05 03:13:51;;;;;;;2.17;0.38;;;;;;;4.28;74.52;99242.22;5090507;28;20109;-69
2022/01/05 03:16:54;;;;;;;0.95;0.30;;;;;;;4.32;75.59;99242.00;5088927;28;20113;-68
2022/01/05 03:19:57;;;;;;;;;;;;;;;4.15;75.83;99249.72;5089443;28;20050;-69
2022/01/05 03:23:03;;;;;;;4.10;0.60;;;;;;;4.16;75.66;99247.03;5088678;28;19999;-69
2022/01/05 03:26:07;;;;;;;3.75;0.57;;;;;;;4.31;76.50;99250.66;5089948;28;20043;-69
2022/01/05 03:29:11;;;;;;;4.00;0.45;;;;;;;4.11;74.91;99258.50;5088812;28;20039;-68
2022/01/05 03:32:15;;;;;;;3.15;0.45;;;;;;;4.10;75.59;99262.84;5089371;28;20520;-68
2022/01/05 03:35:20;;;;;;;2.95;0.70;;;;;;;3.96;74.81;99268.66;5090027;28;20251;-68
2022/01/05 03:38:24;;;;;;;6.75;1.67;;;;;;;3.87;76.74;99284.56;5089112;28;20043;-68
2022/01/05 03:41:27;;;;;;;2.45;0.50;;;;;;;4.01;77.09;99275.34;5089222;28;20043;-69
2022/01/05 03:44:30;;;;;;;5.20;0.88;;;;;;;3.45;75.27;99295.06;5089015;28;20072;-70
2022/01/05 03:47:33;;;;;;;;;;;;;;;3.37;76.44;99303.13;5090072;28;20073;-68
2022/01/05 03:50:37;;;;;;;5.68;1.13;;;;;;;3.67;76.30;99310.44;5089929;28;19977;-68
2022/01/05 03:53:40;;;;;;;5.88;1.20;;;;;;;3.61;76.25;99315.91;5088964;28;20038;-68
2022/01/05 03:56:44;;;;;;;;;;;;;;;3.34;76.32;99329.06;5088948;28;20055;-68
2022/01/05 03:59:47;;;;;;;5.38;1.40;;;;;;;3.35;77.26;99335.09;5088958;28;19950;-68
2022/01/05 04:02:50;;;;;;;4.40;1.45;;;;;;;3.25;78.13;99344.97;5086482;28;20539;-69
2022/01/05 04:05:54;;;;;;;11.88;2.15;;;;;;;3.14;78.04;99344.56;4734434;28;10000043;-68
2022/01/05 04:08:57;;;;;;;9.20;2.88;;;;;;;2.96;79.31;99357.31;5086947;28;20125;-68
2022/01/05 04:12:00;;;;;;;10.98;2.22;;;;;;;3.00;79.42;99351.13;5086603;28;20039;-68
2022/01/05 04:15:04;;;;;;;11.60;2.45;;;;;;;3.02;78.60;99361.41;5085994;28;20055;-69
2022/01/05 04:18:07;;;;;;;8.45;2.40;;;;;;;2.92;79.66;99353.19;5085867;28;20051;-68
2022/01/05 04:21:10;;;;;;;;;;;;;;;3.07;78.71;99363.81;5085630;28;20055;-68
2022/01/05 04:24:13;;;;;;;12.38;2.38;;;;;;;2.95;78.42;99365.97;5086447;28;20427;-68
2022/01/05 04:27:16;;;;;;;;;;;;;;;3.03;78.33;99374.25;5087210;28;20163;-68
2022/01/05 04:30:20;;;;;;;8.00;2.08;;;;;;;2.95;78.47;99383.19;5085178;28;19923;-68
2022/01/05 04:33:23;;;;;;;;;;;;;;;2.95;78.14;99384.03;5086015;28;20039;-69
2022/01/05 04:36:27;;;;;;;11.32;3.40;;;;;;;3.08;77.93;99399.06;5084777;28;20023;-69
2022/01/05 04:39:30;;;;;;;9.48;1.98;;;;;;;3.08;77.38;99396.47;5085535;28;20097;-68
2022/01/05 04:42:33;;;;;;;;;;;;;;;3.08;76.95;99407.63;5086780;28;20129;-68
2022/01/05 04:45:37;;;;;;;9.17;2.80;;;;;;;2.94;77.29;99410.78;5085811;28;20602;-68
2022/01/05 04:48:42;;;;;;;8.05;2.30;;;;;;;3.21;75.43;99420.91;5085459;28;20047;-68
2022/01/05 04:51:45;;;;;;;8.30;1.98;;;;;;;2.92;75.09;99428.06;5087003;28;20043;-69
2022/01/05 04:54:48;;;;;;;7.28;1.83;;;;;;;2.97;75.36;99435.63;5087777;28;20062;-69
2022/01/05 04:57:52;;;;;;;10.55;2.40;;;;;;;3.16;75.74;99443.47;5087684;28;20046;-69
2022/01/05 05:14:17;;;;;;;9.82;1.92;;;;;;;2.62;73.73;99466.19;5041337;28;20465;-77
2022/01/05 05:17:20;;;;;;;11.63;2.28;;;;;;;2.72;73.35;99470.13;5021844;28;20049;-78
2022/01/05 05:20:24;;;;;;;13.18;2.55;;;;;;;2.84;73.95;99467.97;4671934;27;10000157;-76
2022/01/05 05:23:28;;;;;;;12.27;2.42;;;;;;;2.77;72.50;99472.50;5034344;28;20062;-76
2022/01/05 05:26:31;;;;;;;11.23;2.17;;;;;;;2.93;72.62;99471.03;5038268;28;20088;-76
2022/01/05 05:32:57;;;;;;;10.60;5.18;;;;;;;3.27;72.95;99482.66;3290074;26;20084;-85
2022/01/05 05:36:08;;;;;;;6.95;1.73;;;;;;;3.02;74.10;99488.78;5035328;28;20067;-84
2022/01/05 05:39:12;;;;;;;7.57;1.67;;;;;;;2.77;72.09;99493.16;5035747;28;20483;-85
2022/01/05 05:42:16;;;;;;;11.20;1.85;;;;;;;2.90;74.31;99498.72;5043650;28;20486;-86
2022/01/05 05:45:19;;;;;;;8.48;1.90;;;;;;;2.96;74.38;99504.50;5035878;28;20087;-85
2022/01/05 05:48:23;;;;;;;;;;;;;;;3.02;72.87;99499.09;5043496;28;20175;-85
2022/01/05 05:51:26;;;;;;;10.02;2.40;;;;;;;2.84;73.70;99510.13;5044490;28;20065;-84
2022/01/05 05:54:30;;;;;;;9.20;1.70;;;;;;;2.85;71.49;99510.97;5044320;28;20048;-85
2022/01/05 05:57:33;;;;;;;9.30;1.95;;;;;;;2.81;72.96;99505.09;5041213;28;20090;-85
2022/01/05 06:00:37;;;;;;;5.00;1.27;;;;;;;2.67;71.30;99508.16;5024266;28;20464;-85
2022/01/05 06:03:42;;;;;;;5.90;1.70;;;;;;;2.83;71.97;99523.91;5024471;28;20135;-85
2022/01/05 06:06:45;;;;;;;9.05;3.38;;;;;;;2.91;72.37;99524.50;5024600;28;20400;-84
2022/01/05 06:09:51;;;;;;;7.32;2.38;;;;;;;2.86;71.10;99538.47;5024117;28;20536;-84
2022/01/05 06:12:54;;;;;;;7.68;1.85;;;;;;;2.63;70.66;99541.88;5041956;28;20563;-84
2022/01/05 06:15:58;;;;;;;9.68;1.60;;;;;;;2.70;71.43;99551.09;5050957;28;20073;-83
2022/01/05 06:19:02;;;;;;;12.70;2.25;;;;;;;2.65;70.32;99560.72;5050174;28;20469;-84
2022/01/05 06:27:18;;;;;;;8.52;1.45;;;;;;;2.67;69.75;99569.25;4988817;28;20040;-84
2022/01/05 06:30:21;;;;;;;19.13;3.15;;;;;;;2.35;69.90;99566.03;4988669;28;20404;-84
2022/01/05 06:33:25;;;;;;;;;;;;;;;2.63;69.54;99583.16;4988503;28;20672;-83
2022/01/05 06:36:28;;;;;;;10.17;1.60;;;;;;;2.92;69.94;99590.72;4998770;28;19936;-84
2022/01/05 06:39:31;;;;;;;7.40;1.65;;;;;;;2.72;68.32;99608.66;5009593;28;20044;-84
2022/01/05 06:42:34;;;;;;;;;;;;;;;2.40;69.67;99596.88;5046725;28;20510;-84
2022/01/05 06:45:38;;;;;;;11.70;3.33;;;;;;;2.36;68.92;99610.75;5050347;28;20012;-83
2022/01/05 06:48:41;;;;;;;7.57;1.85;;;;;;;2.14;68.50;99619.19;5050610;28;20515;-83
2022/01/05 06:51:45;;;;;;;15.75;3.20;;;;;;;2.31;69.83;99618.66;5040748;28;20044;-83
2022/01/05 06:54:48;;;;;;;;;;;;;;;2.07;68.90;99634.03;5029692;28;20448;-83
2022/01/05 06:57:52;;;;;;;7.47;1.17;;;;;;;1.97;69.22;99626.63;5029344;28;19974;-83
2022/01/05 07:00:55;;;;;;;13.15;2.20;;;;;;;2.10;68.36;99630.50;5025794;28;20649;-84
2022/01/05 07:03:59;;;;;;;6.95;1.77;;;;;;;1.96;68.89;99632.66;5028225;28;20099;-83
2022/01/05 07:07:04;;;;;;;9.63;1.65;;;;;;;1.86;68.42;99638.09;5026331;28;20841;-84
2022/01/05 07:10:12;;;;;;;9.82;3.83;;;;;;;1.91;69.20;99630.22;5025216;28;20092;-84
2022/01/05 07:13:15;;;;;;;12.80;2.70;;;;;;;1.84;68.42;99634.72;5027150;28;20522;-84
2022/01/05 07:16:18;;;;;;;9.73;2.60;;;;;;;1.85;68.24;99648.44;5028607;28;20067;-83
2022/01/05 07:19:21;;;;;;;11.98;1.98;;;;;;;1.73;68.33;99646.28;5047393;28;20161;-83
2022/01/05 07:22:25;;;;;;;10.45;2.22;;;;;;;1.69;69.33;99650.69;5047994;28;20071;-83
2022/01/05 07:25:28;;;;;;;;;;;;;;;1.77;69.25;99653.00;5028178;28;20045;-83
2022/01/05 07:28:32;;;;;;;10.10;2.25;;;;;;;1.76;68.80;99665.06;5028480;28;20322;-84
2022/01/05 07:31:35;;;;;;;12.20;2.15;;;;;;;1.71;68.95;99658.34;5041461;28;20043;-84
2022/01/05 07:34:38;;;;;;;15.48;3.85;;;;;;;1.70;70.49;99662.66;5063696;28;20134;-84
2022/01/05 07:37:42;;;;;;;13.63;3.35;;;;;;;1.89;69.95;99656.97;5065680;28;20082;-85
2022/01/05 07:40:45;;;;;;;;;;;;;;;1.76;68.10;99675.38;5049709;28;20091;-85
2022/01/05 07:43:51;;;;;;;8.88;1.83;;;;;;;1.75;68.90;99681.41;5049518;28;20471;-85
2022/01/05 07:46:55;;;;;;;11.00;3.58;;;;;;;1.66;68.83;99675.66;5048802;28;20164;-84
2022/01/05 07:49:59;;;;;;;11.43;2.00;;;;;;;1.68;67.63;99673.91;5047666;28;20074;-84
2022/01/05 07:53:04;;;;;;;11.38;2.13;;;;;;;1.67;67.71;99688.53;5037814;28;20538;-85
2022/01/05 07:56:08;;;;;;;10.35;2.67;;;;;;;1.58;68.33;99681.91;5048442;28;20044;-85
2022/01/05 07:59:12;;;;;;;13.40;2.13;;;;;;;1.57;67.54;99695.69;5047274;28;20040;-85
2022/01/05 08:02:15;;;;;;;9.05;2.65;;;;;;;1.58;68.32;99694.78;5048470;28;20059;-85
2022/01/05 08:05:21;;;;;;;;;;;;;;;1.56;67.65;99691.44;5048849;28;20103;-87
2022/01/05 08:08:25;;;;;;;16.63;3.20;;;;;;;1.54;67.59;99703.50;5047820;28;20442;-85
2022/01/05 08:11:28;;;;;;;8.93;2.70;;;;;;;1.59;67.20;99696.47;5048244;28;20457;-85
2022/01/05 08:14:31;;;;;;;8.38;1.92;;;;;;;1.67;66.56;99698.00;5047838;28;20079;-84
2022/01/05 08:17:35;;;;;;;;;;;;;;;1.65;67.14;99702.34;5048289;28;20533;-84
2022/01/05 08:20:41;;;;;;;8.18;2.30;;;;;;;1.68;67.07;99700.50;5046268;28;19941;-84
2022/01/05 08:23:47;;;;;;;12.32;2.75;;;;;;;1.65;67.25;99710.06;5047303;28;20087;-84
2022/01/05 08:26:50;;;;;;;16.65;3.58;;;;;;;1.76;67.27;99710.63;5048652;28;20069;-83
2022/01/05 08:29:53;;;;;;;;;;;;;;;1.88;66.66;99712.81;5048688;28;20465;-84
2022/01/05 08:32:57;;;;;;;10.57;2.28;;;;;;;1.83;66.25;99719.84;5047205;28;19958;-84
2022/01/05 08:36:03;;;;;;;9.65;2.35;;;;;;;1.78;66.66;99726.88;5046648;28;20095;-78
2022/01/05 08:39:06;;;;;;;16.50;3.78;;;;;;;1.84;66.62;99734.41;5047744;28;20043;-84
2022/01/05 08:42:10;;;;;;;15.52;3.72;;;;;;;1.89;66.50;99734.31;5047754;28;20051;-84
2022/01/05 08:45:15;;;;;;;12.45;3.63;;;;;;;1.81;66.64;99737.09;5048292;28;20120;-83
2022/01/05 08:48:24;;;;;;;9.20;2.30;;;;;;;1.81;67.08;99734.50;5048699;28;20090;-79
2022/01/05 08:51:28;;;;;;;11.57;3.35;;;;;;;1.93;66.31;99744.47;5046755;28;20044;-81
2022/01/05 08:54:34;;;;;;;9.15;3.25;;;;;;;2.01;66.42;99742.50;5047902;28;20052;-78
2022/01/05 08:57:40;;;;;;;10.65;2.63;;;;;;;2.05;66.33;99753.59;5047562;28;20040;-79
2022/01/05 09:00:43;;;;;;;12.13;2.40;;;;;;;2.14;66.17;99757.59;5047539;28;20047;-80
2022/01/05 09:03:46;;;;;;;10.13;2.55;;;;;;;2.18;66.40;99761.78;5046102;28;20172;-80
2022/01/05 09:06:50;;;;;;;12.40;3.72;;;;;;;2.20;66.20;99755.72;5047329;28;20095;-79
2022/01/05 09:10:01;;;;;;;20.35;4.15;;;;;;;2.26;65.54;99759.81;5046535;28;20110;-78
2022/01/05 09:13:04;;;;;;;14.10;3.75;;;;;;;2.22;65.38;99765.97;5047734;28;20044;-79
2022/01/05 09:16:07;;;;;;;16.17;3.63;;;;;;;2.20;66.91;99770.31;5047795;28;20048;-79
2022/01/05 09:19:10;;;;;;;10.23;3.10;;;;;;;2.27;66.00;99764.09;5046253;28;20489;-77
2022/01/05 09:22:14;;;;;;;15.27;3.05;;;;;;;2.37;66.52;99769.81;5027334;28;20562;-78
2022/01/05 09:25:18;;;;;;;12.00;2.35;;;;;;;2.29;66.17;99770.03;5026969;28;20566;-78
2022/01/05 09:28:21;;;;;;;12.10;2.58;;;;;;;2.34;66.04;99778.50;5027361;28;20507;-80
2022/01/05 09:31:25;;;;;;;;;;;;;;;2.32;66.24;99788.84;5038933;28;20071;-79
2022/01/05 09:34:32;;;;;;;12.68;2.63;;;;;;;2.33;65.96;99774.22;5027550;28;19974;-79
2022/01/05 09:37:48;;;;;;;16.73;3.60;;;;;;;2.41;66.42;99781.72;5028170;28;20075;-79
2022/01/05 09:44:14;;;;;;;10.73;2.65;;;;;;;2.63;66.00;99798.22;5026983;28;20052;-80
2022/01/05 09:47:26;;;;;;;;;;;;;;;2.52;66.04;99798.56;5035904;28;20043;-80
2022/01/05 09:50:31;;;;;;;9.30;2.20;;;;;;;2.51;65.85;99783.97;5049256;28;20393;-80
2022/01/05 09:53:34;;;;;;;13.30;2.65;;;;;;;2.56;66.38;99805.31;5050786;28;20067;-78
2022/01/05 09:56:37;;;;;;;;;;;;;;;2.53;66.65;99789.94;5050684;28;20056;-78
2022/01/05 10:00:07;;;;;;;10.05;3.20;;;;;;;2.52;66.40;99803.75;5051474;28;20276;-78
2022/01/05 10:03:15;;;;;;;12.27;2.40;;;;;;;2.55;66.19;99798.47;5031214;28;20103;-78
2022/01/05 10:06:18;;;;;;;13.52;3.83;;;;;;;2.63;66.13;99797.41;5030463;28;20138;-78
2022/01/05 10:09:25;;;;;;;;;;;;;;;2.60;66.15;99808.66;5031119;28;20068;-78
2022/01/05 10:12:28;;;;;;;10.77;3.90;;;;;;;2.58;66.24;99792.34;5029414;28;19967;-79
2022/01/05 10:15:33;;;;;;;11.20;3.33;;;;;;;2.62;66.38;99799.13;5040143;28;20048;-77
2022/01/05 10:18:42;;;;;;;13.90;3.38;;;;;;;2.64;66.67;99807.66;5049934;28;20135;-78
2022/01/05 10:21:50;;;;;;;9.30;3.15;;;;;;;2.83;66.35;99779.53;5030428;28;20048;-79
2022/01/05 10:24:56;;;;;;;9.52;2.13;;;;;;;2.83;66.26;99781.25;5030497;28;20052;-78
2022/01/05 10:28:04;;;;;;;9.25;2.00;;;;;;;2.74;66.01;99779.81;5030364;28;20052;-77
2022/01/05 10:31:16;;;;;;;10.73;2.40;;;;;;;2.85;65.84;99788.06;5030349;28;20052;-78
2022/01/05 10:34:29;;;;;;;11.90;1.80;;;;;;;2.96;65.65;99793.72;5030138;28;20060;-77
2022/01/05 10:37:33;;;;;;;11.63;2.58;;;;;;;2.88;65.43;99780.22;5029363;28;20132;-78
2022/01/05 10:40:38;;;;;;;11.70;2.70;;;;;;;3.01;65.78;99786.66;5030140;28;20048;-78
2022/01/05 10:44:27;;;;;;;12.32;2.63;;;;;;;2.98;65.92;99785.94;5036362;28;20107;-78
2022/01/05 10:47:33;;;;;;;10.38;2.63;;;;;;;2.95;65.73;99781.72;5049438;28;20091;-78
2022/01/05 10:50:38;;;;;;;8.82;2.30;;;;;;;2.92;65.65;99784.38;5048821;28;20121;-79
2022/01/05 10:53:41;;;;;;;8.98;1.83;;;;;;;2.94;64.96;99799.84;5050579;28;20170;-79
2022/01/05 10:56:44;;;;;;;;;;;;;;;3.08;65.21;99796.81;5051018;28;20101;-79
2022/01/05 10:59:54;;;;;;;10.85;2.03;;;;;;;3.08;65.14;99804.56;5049385;28;19971;-79
2022/01/05 11:02:58;;;;;;;8.20;1.80;;;;;;;3.13;65.02;99806.09;5049778;28;20465;-78
2022/01/05 11:06:11;;;;;;;8.52;2.15;;;;;;;3.09;64.91;99799.31;5049512;28;20526;-79
2022/01/05 11:09:18;;;;;;;11.32;1.60;;;;;;;3.23;64.61;99798.88;5049135;28;20447;-78
2022/01/05 11:12:33;;;;;;;9.88;2.25;;;;;;;3.45;64.17;99817.94;5047634;28;20268;-78
2022/01/05 11:15:37;;;;;;;9.10;2.22;;;;;;;3.29;64.86;99805.56;5049809;28;20663;-79
2022/01/05 11:18:40;;;;;;;;;;;;;;;3.32;64.17;99792.53;5048329;28;20094;-78
2022/01/05 11:22:12;;;;;;;6.80;1.90;;;;;;;3.47;63.88;99794.59;5048915;28;19920;-79
2022/01/05 11:25:15;;;;;;;7.28;1.80;;;;;;;3.39;63.59;99800.03;5049249;28;20075;-79
2022/01/05 11:28:19;;;;;;;;;;;;;;;3.37;64.39;99785.47;5029523;28;20562;-78
2022/01/05 11:31:23;;;;;;;5.57;1.27;;;;;;;3.39;63.67;99789.72;5029655;28;19939;-79
2022/01/05 11:34:28;;;;;;;8.00;2.20;;;;;;;3.47;64.08;99795.44;5029484;28;20072;-80
2022/01/05 11:37:31;;;;;;;9.82;1.88;;;;;;;3.39;64.40;99787.13;5029157;28;20403;-79
2022/01/05 11:40:45;;;;;;;12.55;3.78;;;;;;;3.44;64.09;99784.38;5031614;28;20400;-79
2022/01/05 11:43:59;;;;;;;9.55;2.72;;;;;;;3.39;64.35;99802.63;5049145;28;20102;-79
2022/01/05 11:47:17;;;;;;;12.15;2.70;;;;;;;3.38;64.72;99805.25;5029448;28;20091;-80
2022/01/05 11:50:26;;;;;;;6.97;2.22;;;;;;;3.40;64.78;99809.47;5048408;28;20075;-79
2022/01/05 11:53:35;;;;;;;18.33;3.50;;;;;;;3.42;65.14;99807.69;5048345;28;20043;-79
2022/01/05 11:56:44;;;;;;;11.27;2.45;;;;;;;3.46;64.71;99821.34;5049245;28;20089;-79
2022/01/05 11:59:48;;;;;;;9.65;2.00;;;;;;;3.37;64.68;99804.41;5049054;28;20132;-79
2022/01/05 12:02:51;;;;;;;12.18;3.65;;;;;;;3.47;65.01;99798.03;5038656;28;20395;-79
2022/01/05 12:06:07;;;;;;;11.18;3.42;;;;;;;3.47;65.24;99810.94;5029895;28;20067;-79
2022/01/05 12:09:23;;;;;;;11.38;2.08;;;;;;;3.43;65.04;99814.53;5033632;28;20039;-79
2022/01/05 12:12:30;;;;;;;8.70;2.00;;;;;;;3.53;65.22;99799.56;5049442;28;20160;-79
2022/01/05 12:15:41;;;;;;;10.77;2.22;;;;;;;3.73;65.74;99804.00;5049680;28;20080;-79
2022/01/05 12:19:05;;;;;;;7.85;2.45;;;;;;;3.65;65.51;99808.63;5048622;28;20124;-80
2022/01/05 12:22:18;;;;;;;12.35;2.10;;;;;;;3.56;65.39;99812.38;5049581;28;20047;-80
2022/01/05 12:25:22;;;;;;;9.52;1.75;;;;;;;3.65;65.21;99806.03;5049932;28;20052;-79
2022/01/05 12:28:28;;;;;;;7.10;1.70;;;;;;;3.62;65.27;99819.91;5050124;28;20110;-79
2022/01/05 12:31:50;;;;;;;11.50;1.52;;;;;;;3.64;65.56;99819.88;5048503;28;20492;-76
2022/01/05 12:34:56;;;;;;;6.90;2.10;;;;;;;3.65;65.45;99832.72;5047300;28;20056;-76
2022/01/05 12:38:05;;;;;;;7.07;1.65;;;;;;;3.66;65.09;99828.41;5048270;28;20051;-77
2022/01/05 12:41:31;;;;;;;10.38;2.25;;;;;;;3.68;65.25;99818.88;5049326;28;20598;-76
2022/01/05 12:44:34;;;;;;;12.75;2.40;;;;;;;3.85;65.22;99816.50;5049379;28;20043;-76
2022/01/05 12:47:39;;;;;;;12.82;2.22;;;;;;;3.94;65.25;99817.94;5048017;28;20044;-75
2022/01/05 12:50:43;;;;;;;12.43;1.92;;;;;;;3.81;65.58;99814.94;5049417;28;20044;-76
2022/01/05 12:54:00;;;;;;;12.90;1.85;;;;;;;3.92;65.94;99820.59;5048928;28;20043;-75
2022/01/05 12:57:05;;;;;;;7.43;2.13;;;;;;;3.86;66.04;99822.53;5049065;28;20086;-75
2022/01/05 13:00:11;;;;;;;5.13;1.45;;;;;;;3.65;66.46;99829.31;5049197;28;20047;-76
2022/01/05 13:03:33;;;;;;;6.20;1.77;;;;;;;3.64;67.11;99832.81;5048699;28;20041;-76
2022/01/05 13:06:39;;;;;;;11.02;3.45;;;;;;;3.68;66.55;99848.16;5048451;28;20055;-75
2022/01/05 13:09:50;;;;;;;9.45;1.77;;;;;;;3.77;66.41;99834.06;5048030;28;20055;-75
2022/01/05 13:12:55;;;;;;;11.70;2.28;;;;;;;3.73;66.84;99842.78;5047588;28;20052;-76
2022/01/05 13:16:09;;;;;;;9.23;1.90;;;;;;;3.68;66.86;99829.22;5048182;28;20049;-76
2022/01/05 13:19:29;;;;;;;10.27;1.70;;;;;;;3.71;67.09;99837.69;5045056;28;20051;-75
2022/01/05 13:22:43;;;;;;;9.48;1.83;;;;;;;3.79;66.93;99849.50;5047157;28;20063;-76
2022/01/05 13:25:46;;;;;;;;;;;;;;;3.78;66.56;99845.25;5053683;28;20075;-78
2022/01/05 13:28:51;;;;;;;7.68;1.70;;;;;;;3.90;66.69;99834.47;5052290;28;19927;-76
2022/01/05 13:32:00;;;;;;;11.20;2.17;;;;;;;4.01;66.42;99815.97;5053096;28;20060;-76
2022/01/05 13:35:05;;;;;;;11.05;2.45;;;;;;;3.84;67.20;99822.59;5052784;28;20399;-76
2022/01/05 13:38:12;;;;;;;9.52;3.03;;;;;;;3.99;67.37;99844.47;5052788;28;20048;-76
2022/01/05 13:41:16;;;;;;;8.45;2.13;;;;;;;3.96;67.13;99829.06;5052839;28;20063;-77
2022/01/05 13:44:19;;;;;;;;;;;;;;;3.99;67.47;99825.50;5052896;28;20052;-76
2022/01/05 13:47:24;;;;;;;7.60;2.42;;;;;;;4.00;67.08;99835.81;5051457;28;20278;-77
2022/01/05 13:50:48;;;;;;;9.30;1.95;;;;;;;3.92;67.38;99832.66;5051833;28;20059;-76
2022/01/05 13:53:52;;;;;;;8.98;1.92;;;;;;;3.96;67.25;99840.25;5052414;28;20662;-76
2022/01/05 13:56:56;;;;;;;7.65;2.15;;;;;;;4.02;67.18;99843.50;5052247;28;20052;-76
2022/01/05 14:00:19;;;;;;;6.90;1.65;;;;;;;4.02;67.53;99848.69;5058156;28;20540;-76
2022/01/05 14:03:29;;;;;;;11.18;3.30;;;;;;;4.04;67.70;99846.88;5067832;28;20083;-76
2022/01/05 14:06:32;;;;;;;6.80;1.85;;;;;;;3.99;66.88;99848.78;5051269;28;20056;-77
2022/01/05 14:09:35;;;;;;;12.15;3.45;;;;;;;4.07;66.85;99859.72;5050607;28;20052;-76
2022/01/05 14:12:47;;;;;;;9.85;2.53;;;;;;;4.08;66.63;99880.34;5050757;28;20515;-76
2022/01/05 14:15:56;;;;;;;10.20;2.20;;;;;;;4.20;67.32;99866.13;5050875;28;20120;-76
2022/01/05 14:19:06;;;;;;;5.20;1.75;;;;;;;4.17;67.03;99859.31;5049373;28;20550;-76
2022/01/05 14:22:14;;;;;;;9.98;2.13;;;;;;;4.13;67.07;99857.75;5051852;28;20040;-76
2022/01/05 14:25:34;;;;;;;11.20;2.50;;;;;;;4.19;67.33;99878.22;5051376;28;20068;-75
2022/01/05 14:28:37;;;;;;;8.45;3.22;;;;;;;4.15;67.34;99883.59;5052436;28;20453;-75
2022/01/05 14:31:43;;;;;;;6.97;3.20;;;;;;;4.13;67.10;99880.19;5051998;28;20051;-76
2022/01/05 14:34:52;;;;;;;10.50;3.38;;;;;;;4.13;67.35;99882.78;5050793;28;20118;-76
2022/01/05 14:38:01;;;;;;;15.88;7.25;;;;;;;4.13;67.35;99886.22;5050741;28;20043;-76
2022/01/05 14:41:12;;;;;;;6.40;2.45;;;;;;;4.23;66.90;99884.13;4696459;28;10000496;-76
2022/01/05 14:44:23;;;;;;;9.00;2.60;;;;;;;4.39;67.08;99910.28;5050543;28;20079;-77
2022/01/05 14:47:31;;;;;;;8.23;2.15;;;;;;;4.31;67.50;99907.16;5044493;28;20086;-80
2022/01/05 14:50:38;;;;;;;6.40;2.15;;;;;;;4.14;68.55;99910.34;5050035;28;20044;-75
2022/01/05 14:53:55;;;;;;;12.52;2.88;;;;;;;4.13;68.88;99903.47;5050439;28;20126;-77
2022/01/05 14:56:58;;;;;;;6.03;2.38;;;;;;;4.01;70.23;99909.09;5049130;28;20068;-80
2022/01/05 15:00:04;;;;;;;7.55;2.53;;;;;;;4.02;69.61;99900.41;5049461;28;20059;-79
2022/01/05 15:03:07;;;;;;;9.50;1.88;;;;;;;4.02;69.89;99909.03;5049917;28;20055;-77
2022/01/05 15:06:11;;;;;;;11.95;3.63;;;;;;;4.06;69.58;99907.19;5049068;28;20064;-78
2022/01/05 15:09:16;;;;;;;;;;;;;;;4.05;70.23;99915.81;5049550;28;20044;-79
2022/01/05 15:12:20;;;;;;;9.32;3.38;;;;;;;3.96;70.92;99929.94;5047546;28;20414;-78
2022/01/05 15:15:24;;;;;;;9.85;2.83;;;;;;;3.99;71.13;99941.91;5045395;28;20091;-78
2022/01/05 15:18:28;;;;;;;11.23;3.13;;;;;;;3.95;71.70;99936.00;5027893;28;20076;-78
2022/01/05 16:01:29;;;;;;;10.02;2.17;;;;;;;4.08;70.32;99983.00;5082560;28;20062;-76